sensor_id;sensor_type;location;lat;lon;timestamp;pressure;altitude;pressure_sealevel;temperature;humidity
6345;BME280;3205;42.666;23.264;2023-03-26T00:01:54;93943.50;;;10.91;100.00
6345;BME280;3205;42.666;23.264;2023-03-26T00:04:22;93943.44;;;10.88;100.00
6345;BME280;3205;42.666;23.264;2023-03-26T00:06:50;93943.63;;;10.79;100.00
6345;BME280;3205;42.666;23.264;2023-03-26T00:09:17;93946.00;;;10.84;100.00
6345;BME280;3205;42.666;23.264;2023-03-26T00:11:43;93946.63;;;10.78;100.00
6345;BME280;3205;42.666;23.264;2023-03-26T00:14:11;93940.38;;;10.70;100.00
6345;BME280;3205;42.666;23.264;2023-03-26T00:16:39;93935.44;;;10.69;100.00
6345;BME280;3205;42.666;23.264;2023-03-26T00:19:07;93921.88;;;10.70;100.00
6345;BME280;3205;42.666;23.264;2023-03-26T00:21:34;93924.19;;;10.72;100.00
6345;BME280;3205;42.666;23.264;2023-03-26T00:24:01;93910.22;;;10.71;100.00
6345;BME280;3205;42.666;23.264;2023-03-26T00:26:29;93911.84;;;10.60;100.00
6345;BME280;3205;42.666;23.264;2023-03-26T00:28:56;93900.84;;;10.58;100.00
6345;BME280;3205;42.666;23.264;2023-03-26T00:31:23;93904.44;;;10.50;100.00
6345;BME280;3205;42.666;23.264;2023-03-26T00:33:51;93896.50;;;10.50;100.00
6345;BME280;3205;42.666;23.264;2023-03-26T00:36:20;93895.59;;;10.43;100.00
6345;BME280;3205;42.666;23.264;2023-03-26T00:38:47;93878.03;;;10.35;100.00
6345;BME280;3205;42.666;23.264;2023-03-26T00:41:15;93887.91;;;10.38;100.00
6345;BME280;3205;42.666;23.264;2023-03-26T00:43:51;93898.81;;;10.36;100.00
6345;BME280;3205;42.666;23.264;2023-03-26T00:46:21;93891.00;;;10.25;100.00
6345;BME280;3205;42.666;23.264;2023-03-26T00:48:47;93887.25;;;10.26;100.00
6345;BME280;3205;42.666;23.264;2023-03-26T00:51:16;93891.66;;;10.22;100.00
6345;BME280;3205;42.666;23.264;2023-03-26T00:53:44;93890.06;;;10.17;100.00
6345;BME280;3205;42.666;23.264;2023-03-26T00:56:11;93895.41;;;10.05;100.00
6345;BME280;3205;42.666;23.264;2023-03-26T00:58:37;93896.94;;;10.06;100.00
6345;BME280;3205;42.666;23.264;2023-03-26T01:01:06;93902.59;;;10.05;100.00
6345;BME280;3205;42.666;23.264;2023-03-26T01:03:35;93905.88;;;10.02;100.00
6345;BME280;3205;42.666;23.264;2023-03-26T01:06:03;93908.31;;;9.95;100.00
6345;BME280;3205;42.666;23.264;2023-03-26T01:08:37;93911.22;;;9.90;100.00
6345;BME280;3205;42.666;23.264;2023-03-26T01:11:07;93911.22;;;9.90;100.00
6345;BME280;3205;42.666;23.264;2023-03-26T01:13:40;93907.28;;;9.84;100.00
6345;BME280;3205;42.666;23.264;2023-03-26T01:16:14;93909.94;;;9.84;100.00
6345;BME280;3205;42.666;23.264;2023-03-26T01:18:45;93900.13;;;9.84;100.00
6345;BME280;3205;42.666;23.264;2023-03-26T01:21:13;93901.13;;;9.80;100.00
6345;BME280;3205;42.666;23.264;2023-03-26T01:23:54;93902.00;;;9.84;100.00
6345;BME280;3205;42.666;23.264;2023-03-26T01:26:30;93905.09;;;9.86;100.00
6345;BME280;3205;42.666;23.264;2023-03-26T01:29:02;93900.47;;;9.83;100.00
6345;BME280;3205;42.666;23.264;2023-03-26T01:31:31;93903.03;;;9.79;100.00
6345;BME280;3205;42.666;23.264;2023-03-26T01:34:07;93908.06;;;9.84;100.00
6345;BME280;3205;42.666;23.264;2023-03-26T01:36:40;93906.13;;;9.97;100.00
6345;BME280;3205;42.666;23.264;2023-03-26T01:39:15;93903.00;;;10.07;100.00
6345;BME280;3205;42.666;23.264;2023-03-26T01:41:48;93904.97;;;10.10;100.00
6345;BME280;3205;42.666;23.264;2023-03-26T01:44:19;93908.78;;;10.12;100.00
6345;BME280;3205;42.666;23.264;2023-03-26T01:46:50;93913.41;;;10.15;100.00
6345;BME280;3205;42.666;23.264;2023-03-26T01:49:17;93916.47;;;10.17;100.00
6345;BME280;3205;42.666;23.264;2023-03-26T01:51:43;93922.53;;;10.18;100.00
6345;BME280;3205;42.666;23.264;2023-03-26T01:54:13;93919.69;;;10.26;100.00
6345;BME280;3205;42.666;23.264;2023-03-26T01:56:49;93917.94;;;10.30;100.00
6345;BME280;3205;42.666;23.264;2023-03-26T01:59:37;93925.94;;;10.34;100.00
6345;BME280;3205;42.666;23.264;2023-03-26T02:02:10;93924.06;;;10.34;100.00
6345;BME280;3205;42.666;23.264;2023-03-26T02:04:42;93913.31;;;10.27;100.00
6345;BME280;3205;42.666;23.264;2023-03-26T02:07:14;93924.72;;;10.16;100.00
6345;BME280;3205;42.666;23.264;2023-03-26T02:09:49;93928.56;;;10.03;100.00
6345;BME280;3205;42.666;23.264;2023-03-26T02:12:17;93926.38;;;9.93;100.00
6345;BME280;3205;42.666;23.264;2023-03-26T02:14:44;93926.22;;;9.86;100.00
6345;BME280;3205;42.666;23.264;2023-03-26T02:17:10;93925.16;;;9.75;100.00
6345;BME280;3205;42.666;23.264;2023-03-26T02:19:37;93916.72;;;9.69;100.00
6345;BME280;3205;42.666;23.264;2023-03-26T02:22:06;93910.72;;;9.57;100.00
6345;BME280;3205;42.666;23.264;2023-03-26T02:24:35;93911.06;;;9.56;100.00
6345;BME280;3205;42.666;23.264;2023-03-26T02:27:06;93903.75;;;9.64;100.00
6345;BME280;3205;42.666;23.264;2023-03-26T02:29:33;93914.41;;;9.68;100.00
6345;BME280;3205;42.666;23.264;2023-03-26T02:32:03;93914.44;;;9.83;100.00
6345;BME280;3205;42.666;23.264;2023-03-26T02:34:29;93922.63;;;9.94;100.00
6345;BME280;3205;42.666;23.264;2023-03-26T02:36:55;93937.25;;;10.03;100.00
6345;BME280;3205;42.666;23.264;2023-03-26T02:39:22;93928.06;;;10.13;100.00
6345;BME280;3205;42.666;23.264;2023-03-26T02:41:48;93934.72;;;10.22;100.00
6345;BME280;3205;42.666;23.264;2023-03-26T02:44:15;93942.72;;;10.26;100.00
6345;BME280;3205;42.666;23.264;2023-03-26T02:46:41;93946.97;;;10.30;100.00
6345;BME280;3205;42.666;23.264;2023-03-26T02:49:08;93947.91;;;10.37;100.00
6345;BME280;3205;42.666;23.264;2023-03-26T02:51:34;93959.22;;;10.38;100.00
6345;BME280;3205;42.666;23.264;2023-03-26T02:54:00;93971.06;;;10.29;100.00
6345;BME280;3205;42.666;23.264;2023-03-26T02:56:26;93961.63;;;10.28;100.00
6345;BME280;3205;42.666;23.264;2023-03-26T02:58:53;93971.78;;;10.26;100.00
6345;BME280;3205;42.666;23.264;2023-03-26T03:01:19;93980.19;;;10.31;100.00
6345;BME280;3205;42.666;23.264;2023-03-26T03:03:47;93978.59;;;10.27;100.00
6345;BME280;3205;42.666;23.264;2023-03-26T03:06:13;93979.44;;;10.31;100.00
6345;BME280;3205;42.666;23.264;2023-03-26T03:08:41;93971.59;;;10.19;100.00
6345;BME280;3205;42.666;23.264;2023-03-26T03:11:12;93979.78;;;10.14;100.00
6345;BME280;3205;42.666;23.264;2023-03-26T03:13:39;93983.78;;;9.96;100.00
6345;BME280;3205;42.666;23.264;2023-03-26T03:16:05;93984.03;;;9.91;100.00
6345;BME280;3205;42.666;23.264;2023-03-26T03:18:32;93979.00;;;9.86;100.00
6345;BME280;3205;42.666;23.264;2023-03-26T03:20:58;93991.47;;;9.73;100.00
6345;BME280;3205;42.666;23.264;2023-03-26T03:23:25;93993.63;;;9.56;100.00
6345;BME280;3205;42.666;23.264;2023-03-26T03:25:51;93999.59;;;9.41;100.00
6345;BME280;3205;42.666;23.264;2023-03-26T03:28:17;93994.81;;;9.31;100.00
6345;BME280;3205;42.666;23.264;2023-03-26T03:30:43;93996.34;;;9.20;100.00
6345;BME280;3205;42.666;23.264;2023-03-26T03:33:11;93986.91;;;9.07;100.00
6345;BME280;3205;42.666;23.264;2023-03-26T03:35:38;93981.03;;;8.98;100.00
6345;BME280;3205;42.666;23.264;2023-03-26T03:38:05;93978.03;;;9.00;100.00
6345;BME280;3205;42.666;23.264;2023-03-26T03:40:31;93982.09;;;8.85;100.00
6345;BME280;3205;42.666;23.264;2023-03-26T03:42:57;93971.16;;;8.84;100.00
6345;BME280;3205;42.666;23.264;2023-03-26T03:45:24;93971.47;;;8.70;100.00
6345;BME280;3205;42.666;23.264;2023-03-26T03:47:50;93965.34;;;8.66;100.00
6345;BME280;3205;42.666;23.264;2023-03-26T03:50:17;93967.31;;;8.57;100.00
6345;BME280;3205;42.666;23.264;2023-03-26T03:52:44;93960.25;;;8.61;100.00
6345;BME280;3205;42.666;23.264;2023-03-26T03:55:10;93962.69;;;8.66;100.00
6345;BME280;3205;42.666;23.264;2023-03-26T03:57:38;93968.63;;;8.63;100.00
6345;BME280;3205;42.666;23.264;2023-03-26T04:00:06;93951.72;;;8.64;100.00
6345;BME280;3205;42.666;23.264;2023-03-26T04:02:36;93957.84;;;8.56;100.00
6345;BME280;3205;42.666;23.264;2023-03-26T04:05:03;93949.84;;;8.53;100.00
6345;BME280;3205;42.666;23.264;2023-03-26T04:07:31;93949.84;;;8.53;100.00
6345;BME280;3205;42.666;23.264;2023-03-26T04:09:58;93964.56;;;8.54;100.00
6345;BME280;3205;42.666;23.264;2023-03-26T04:12:25;93980.81;;;8.56;100.00
6345;BME280;3205;42.666;23.264;2023-03-26T04:14:51;93984.09;;;8.53;100.00
6345;BME280;3205;42.666;23.264;2023-03-26T04:17:17;93996.38;;;8.49;100.00
6345;BME280;3205;42.666;23.264;2023-03-26T04:19:46;93999.25;;;8.56;100.00
6345;BME280;3205;42.666;23.264;2023-03-26T04:22:12;94004.84;;;8.66;100.00
6345;BME280;3205;42.666;23.264;2023-03-26T04:24:38;94009.44;;;8.69;100.00
6345;BME280;3205;42.666;23.264;2023-03-26T04:27:09;94013.06;;;8.65;100.00
6345;BME280;3205;42.666;23.264;2023-03-26T04:29:40;94023.81;;;8.72;100.00
6345;BME280;3205;42.666;23.264;2023-03-26T04:32:09;94019.22;;;8.69;100.00
6345;BME280;3205;42.666;23.264;2023-03-26T04:34:37;94026.38;;;8.80;100.00
6345;BME280;3205;42.666;23.264;2023-03-26T04:37:04;94036.69;;;8.85;100.00
6345;BME280;3205;42.666;23.264;2023-03-26T04:39:30;94046.91;;;8.75;100.00
6345;BME280;3205;42.666;23.264;2023-03-26T04:41:58;94047.56;;;8.84;100.00
6345;BME280;3205;42.666;23.264;2023-03-26T04:44:25;94046.13;;;8.98;100.00
6345;BME280;3205;42.666;23.264;2023-03-26T04:46:51;94054.91;;;9.14;100.00
6345;BME280;3205;42.666;23.264;2023-03-26T04:49:17;94062.59;;;9.31;100.00
6345;BME280;3205;42.666;23.264;2023-03-26T04:51:44;94062.47;;;9.51;100.00
6345;BME280;3205;42.666;23.264;2023-03-26T04:54:12;94070.03;;;9.53;100.00
6345;BME280;3205;42.666;23.264;2023-03-26T04:56:43;94072.31;;;9.66;100.00
6345;BME280;3205;42.666;23.264;2023-03-26T04:59:13;94071.94;;;9.79;100.00
6345;BME280;3205;42.666;23.264;2023-03-26T05:01:41;94078.50;;;10.09;100.00
6345;BME280;3205;42.666;23.264;2023-03-26T05:04:10;94078.44;;;10.79;100.00
6345;BME280;3205;42.666;23.264;2023-03-26T05:06:36;94086.97;;;11.19;100.00
6345;BME280;3205;42.666;23.264;2023-03-26T05:09:03;94085.22;;;11.91;100.00
6345;BME280;3205;42.666;23.264;2023-03-26T05:11:29;94103.66;;;13.24;100.00
6345;BME280;3205;42.666;23.264;2023-03-26T05:13:55;94100.81;;;14.79;100.00
6345;BME280;3205;42.666;23.264;2023-03-26T05:16:21;94104.84;;;15.92;100.00
6345;BME280;3205;42.666;23.264;2023-03-26T05:18:49;94109.63;;;17.46;88.10
6345;BME280;3205;42.666;23.264;2023-03-26T05:21:16;94110.34;;;17.95;77.15
6345;BME280;3205;42.666;23.264;2023-03-26T05:23:42;94111.09;;;17.15;78.90
6345;BME280;3205;42.666;23.264;2023-03-26T05:26:08;94122.44;;;16.78;83.62
6345;BME280;3205;42.666;23.264;2023-03-26T05:28:35;94119.25;;;16.41;85.06
6345;BME280;3205;42.666;23.264;2023-03-26T05:31:01;94119.88;;;18.31;76.42
6345;BME280;3205;42.666;23.264;2023-03-26T05:33:27;94118.41;;;20.13;62.68
6345;BME280;3205;42.666;23.264;2023-03-26T05:36:02;94118.25;;;20.97;56.52
6345;BME280;3205;42.666;23.264;2023-03-26T05:38:29;94120.88;;;22.71;51.94
6345;BME280;3205;42.666;23.264;2023-03-26T05:40:58;94121.56;;;23.65;45.90
6345;BME280;3205;42.666;23.264;2023-03-26T05:43:25;94128.81;;;25.32;42.70
6345;BME280;3205;42.666;23.264;2023-03-26T05:45:51;94128.22;;;25.90;40.08
6345;BME280;3205;42.666;23.264;2023-03-26T05:48:17;94131.50;;;26.44;39.21
6345;BME280;3205;42.666;23.264;2023-03-26T05:50:43;94130.44;;;27.70;37.68
6345;BME280;3205;42.666;23.264;2023-03-26T05:53:10;94134.81;;;28.63;36.56
6345;BME280;3205;42.666;23.264;2023-03-26T05:55:36;94143.97;;;28.39;35.52
6345;BME280;3205;42.666;23.264;2023-03-26T05:58:02;94135.53;;;28.46;35.23
6345;BME280;3205;42.666;23.264;2023-03-26T06:00:29;94131.09;;;27.01;35.81
6345;BME280;3205;42.666;23.264;2023-03-26T06:02:55;94131.97;;;28.19;35.35
6345;BME280;3205;42.666;23.264;2023-03-26T06:05:21;94133.53;;;29.54;33.63
6345;BME280;3205;42.666;23.264;2023-03-26T06:07:47;94140.78;;;30.39;31.59
6345;BME280;3205;42.666;23.264;2023-03-26T06:10:14;94140.47;;;31.07;30.72
6345;BME280;3205;42.666;23.264;2023-03-26T06:12:40;94130.53;;;31.48;29.81
6345;BME280;3205;42.666;23.264;2023-03-26T06:15:08;94130.53;;;32.40;28.86
6345;BME280;3205;42.666;23.264;2023-03-26T06:17:34;94125.91;;;33.05;28.22
6345;BME280;3205;42.666;23.264;2023-03-26T06:20:00;94115.94;;;32.62;27.83
6345;BME280;3205;42.666;23.264;2023-03-26T06:22:27;94121.41;;;31.36;28.82
6345;BME280;3205;42.666;23.264;2023-03-26T06:24:53;94117.94;;;30.98;29.07
6345;BME280;3205;42.666;23.264;2023-03-26T06:27:19;94125.91;;;31.25;28.87
6345;BME280;3205;42.666;23.264;2023-03-26T06:29:46;94126.22;;;32.33;27.74
6345;BME280;3205;42.666;23.264;2023-03-26T06:32:12;94122.34;;;31.91;27.69
6345;BME280;3205;42.666;23.264;2023-03-26T06:34:38;94116.34;;;28.58;30.42
6345;BME280;3205;42.666;23.264;2023-03-26T06:37:04;94108.72;;;26.41;33.00
6345;BME280;3205;42.666;23.264;2023-03-26T06:39:33;94109.88;;;27.29;32.87
6345;BME280;3205;42.666;23.264;2023-03-26T06:41:59;94107.94;;;28.08;31.61
6345;BME280;3205;42.666;23.264;2023-03-26T06:44:26;94109.28;;;28.04;31.83
6345;BME280;3205;42.666;23.264;2023-03-26T06:46:52;94100.31;;;28.34;31.13
6345;BME280;3205;42.666;23.264;2023-03-26T06:49:18;94111.63;;;29.48;30.00
6345;BME280;3205;42.666;23.264;2023-03-26T06:51:45;94116.88;;;30.34;29.48
6345;BME280;3205;42.666;23.264;2023-03-26T06:54:12;94122.22;;;29.97;30.32
6345;BME280;3205;42.666;23.264;2023-03-26T06:56:38;94128.44;;;29.97;29.43
6345;BME280;3205;42.666;23.264;2023-03-26T06:59:04;94130.25;;;29.41;29.85
6345;BME280;3205;42.666;23.264;2023-03-26T07:01:31;94129.97;;;29.21;29.32
6345;BME280;3205;42.666;23.264;2023-03-26T07:03:57;94139.41;;;29.70;29.59
6345;BME280;3205;42.666;23.264;2023-03-26T07:06:23;94142.22;;;29.85;29.74
6345;BME280;3205;42.666;23.264;2023-03-26T07:08:49;94143.16;;;30.23;28.61
6345;BME280;3205;42.666;23.264;2023-03-26T07:11:15;94128.22;;;30.65;28.61
6345;BME280;3205;42.666;23.264;2023-03-26T07:13:44;94134.06;;;29.94;28.33
6345;BME280;3205;42.666;23.264;2023-03-26T07:16:11;94140.03;;;31.38;28.24
6345;BME280;3205;42.666;23.264;2023-03-26T07:18:39;94129.69;;;32.68;26.09
6345;BME280;3205;42.666;23.264;2023-03-26T07:21:06;94133.84;;;33.03;26.03
6345;BME280;3205;42.666;23.264;2023-03-26T07:23:32;94133.13;;;32.63;26.37
6345;BME280;3205;42.666;23.264;2023-03-26T07:26:00;94136.47;;;33.57;25.35
6345;BME280;3205;42.666;23.264;2023-03-26T07:28:38;94127.28;;;33.60;25.39
6345;BME280;3205;42.666;23.264;2023-03-26T07:31:18;94125.16;;;33.75;25.17
6345;BME280;3205;42.666;23.264;2023-03-26T07:33:57;94118.34;;;34.74;24.33
6345;BME280;3205;42.666;23.264;2023-03-26T07:36:31;94115.91;;;34.81;23.82
6345;BME280;3205;42.666;23.264;2023-03-26T07:39:09;94117.81;;;35.34;22.93
6345;BME280;3205;42.666;23.264;2023-03-26T07:41:42;94124.84;;;34.77;23.23
6345;BME280;3205;42.666;23.264;2023-03-26T07:44:28;94114.41;;;34.02;24.09
6345;BME280;3205;42.666;23.264;2023-03-26T07:46:59;94110.28;;;34.18;23.46
6345;BME280;3205;42.666;23.264;2023-03-26T07:49:28;94113.31;;;34.62;22.83
6345;BME280;3205;42.666;23.264;2023-03-26T07:51:56;94115.38;;;34.78;22.52
6345;BME280;3205;42.666;23.264;2023-03-26T07:54:23;94114.81;;;34.26;23.37
6345;BME280;3205;42.666;23.264;2023-03-26T07:56:52;94106.94;;;33.47;23.97
6345;BME280;3205;42.666;23.264;2023-03-26T07:59:25;94105.31;;;33.35;23.22
6345;BME280;3205;42.666;23.264;2023-03-26T08:02:16;94107.84;;;32.93;22.95
6345;BME280;3205;42.666;23.264;2023-03-26T08:04:58;94104.88;;;32.37;23.60
6345;BME280;3205;42.666;23.264;2023-03-26T08:07:36;94097.97;;;32.42;23.74
6345;BME280;3205;42.666;23.264;2023-03-26T08:10:11;94095.88;;;31.68;23.98
6345;BME280;3205;42.666;23.264;2023-03-26T08:12:49;94112.00;;;32.49;23.98
6345;BME280;3205;42.666;23.264;2023-03-26T08:15:21;94104.94;;;33.47;22.81
6345;BME280;3205;42.666;23.264;2023-03-26T08:17:53;94102.59;;;33.60;22.88
6345;BME280;3205;42.666;23.264;2023-03-26T08:20:31;94101.31;;;34.59;22.28
6345;BME280;3205;42.666;23.264;2023-03-26T08:23:05;94106.75;;;35.01;22.17
6345;BME280;3205;42.666;23.264;2023-03-26T08:25:37;94106.53;;;34.15;21.87
6345;BME280;3205;42.666;23.264;2023-03-26T08:28:22;94109.97;;;34.47;21.93
6345;BME280;3205;42.666;23.264;2023-03-26T08:30:50;94112.25;;;34.12;22.15
6345;BME280;3205;42.666;23.264;2023-03-26T08:33:20;94108.63;;;34.31;22.28
6345;BME280;3205;42.666;23.264;2023-03-26T08:35:48;94110.81;;;34.58;22.08
6345;BME280;3205;42.666;23.264;2023-03-26T08:38:16;94119.63;;;34.31;22.33
6345;BME280;3205;42.666;23.264;2023-03-26T08:56:25;94106.34;;;31.55;24.60
6345;BME280;3205;42.666;23.264;2023-03-26T08:59:17;94114.97;;;32.85;23.32
6345;BME280;3205;42.666;23.264;2023-03-26T09:02:13;94110.19;;;32.60;23.45
6345;BME280;3205;42.666;23.264;2023-03-26T09:08:39;94109.25;;;30.85;24.13
6345;BME280;3205;42.666;23.264;2023-03-26T09:11:32;94110.25;;;31.11;24.04
6345;BME280;3205;42.666;23.264;2023-03-26T09:17:18;94103.59;;;30.88;24.61
6345;BME280;3205;42.666;23.264;2023-03-26T09:20:25;94100.19;;;30.79;23.74
6345;BME280;3205;42.666;23.264;2023-03-26T09:32:12;94087.97;;;30.51;23.20
6345;BME280;3205;42.666;23.264;2023-03-26T09:35:02;94098.97;;;31.18;23.76
6345;BME280;3205;42.666;23.264;2023-03-26T09:37:49;94101.59;;;31.41;22.89
6345;BME280;3205;42.666;23.264;2023-03-26T09:40:24;94086.66;;;30.85;23.67
6345;BME280;3205;42.666;23.264;2023-03-26T09:42:55;94093.06;;;32.11;23.65
6345;BME280;3205;42.666;23.264;2023-03-26T09:45:45;94097.22;;;32.41;22.58
6345;BME280;3205;42.666;23.264;2023-03-26T09:48:35;94080.22;;;31.68;22.92
6345;BME280;3205;42.666;23.264;2023-03-26T09:51:28;94092.28;;;31.04;23.01
6345;BME280;3205;42.666;23.264;2023-03-26T09:54:10;94075.69;;;30.00;23.79
6345;BME280;3205;42.666;23.264;2023-03-26T09:56:49;94083.72;;;27.23;26.64
6345;BME280;3205;42.666;23.264;2023-03-26T10:02:17;94069.91;;;24.71;29.81
6345;BME280;3205;42.666;23.264;2023-03-26T10:05:12;94061.34;;;24.15;30.34
6345;BME280;3205;42.666;23.264;2023-03-26T10:08:05;94051.88;;;23.12;30.13
6345;BME280;3205;42.666;23.264;2023-03-26T10:10:42;94053.41;;;22.16;31.96
6345;BME280;3205;42.666;23.264;2023-03-26T10:13:23;94048.13;;;21.14;33.36
6345;BME280;3205;42.666;23.264;2023-03-26T10:16:01;94046.19;;;20.89;33.85
6345;BME280;3205;42.666;23.264;2023-03-26T10:18:38;94039.75;;;20.49;34.22
6345;BME280;3205;42.666;23.264;2023-03-26T10:21:17;94036.53;;;20.31;34.53
6345;BME280;3205;42.666;23.264;2023-03-26T10:24:04;94027.19;;;20.10;34.15
6345;BME280;3205;42.666;23.264;2023-03-26T10:26:47;94013.88;;;19.99;34.03
6345;BME280;3205;42.666;23.264;2023-03-26T10:29:30;94005.59;;;19.87;35.17
6345;BME280;3205;42.666;23.264;2023-03-26T10:32:12;94009.06;;;19.84;34.68
6345;BME280;3205;42.666;23.264;2023-03-26T10:34:51;94016.03;;;19.74;34.85
6345;BME280;3205;42.666;23.264;2023-03-26T10:37:29;94018.00;;;19.67;34.13
6345;BME280;3205;42.666;23.264;2023-03-26T10:40:17;94002.50;;;19.48;33.67
6345;BME280;3205;42.666;23.264;2023-03-26T10:46:23;94001.66;;;19.07;34.62
6345;BME280;3205;42.666;23.264;2023-03-26T10:49:34;94000.56;;;18.98;34.22
6345;BME280;3205;42.666;23.264;2023-03-26T10:52:07;93999.91;;;18.83;33.72
6345;BME280;3205;42.666;23.264;2023-03-26T10:54:42;93998.47;;;18.72;34.43
6345;BME280;3205;42.666;23.264;2023-03-26T10:57:21;93988.88;;;18.74;34.00
6345;BME280;3205;42.666;23.264;2023-03-26T10:59:51;93992.78;;;18.60;33.30
6345;BME280;3205;42.666;23.264;2023-03-26T11:02:27;93989.03;;;18.47;33.10
6345;BME280;3205;42.666;23.264;2023-03-26T11:05:03;93993.75;;;18.22;33.47
6345;BME280;3205;42.666;23.264;2023-03-26T11:07:34;93998.31;;;18.18;35.07
6345;BME280;3205;42.666;23.264;2023-03-26T11:10:07;93991.50;;;18.06;33.81
6345;BME280;3205;42.666;23.264;2023-03-26T11:12:40;93988.03;;;18.09;34.06
6345;BME280;3205;42.666;23.264;2023-03-26T11:15:18;93982.38;;;17.93;33.74
6345;BME280;3205;42.666;23.264;2023-03-26T11:17:56;93985.09;;;17.76;35.06
6345;BME280;3205;42.666;23.264;2023-03-26T11:20:31;93974.38;;;17.87;35.45
6345;BME280;3205;42.666;23.264;2023-03-26T11:23:13;93977.44;;;17.82;33.63
6345;BME280;3205;42.666;23.264;2023-03-26T11:25:55;93970.97;;;17.76;33.83
6345;BME280;3205;42.666;23.264;2023-03-26T11:28:36;93950.72;;;17.68;33.65
6345;BME280;3205;42.666;23.264;2023-03-26T11:31:12;93954.63;;;17.46;34.65
6345;BME280;3205;42.666;23.264;2023-03-26T11:33:44;93948.47;;;17.56;35.29
6345;BME280;3205;42.666;23.264;2023-03-26T11:36:13;93948.06;;;17.68;35.30
6345;BME280;3205;42.666;23.264;2023-03-26T11:38:42;93944.63;;;17.74;35.55
6345;BME280;3205;42.666;23.264;2023-03-26T11:41:13;93951.53;;;17.61;35.06
6345;BME280;3205;42.666;23.264;2023-03-26T11:43:40;93933.16;;;17.67;35.23
6345;BME280;3205;42.666;23.264;2023-03-26T11:46:09;93925.53;;;17.65;35.37
6345;BME280;3205;42.666;23.264;2023-03-26T11:48:40;93915.28;;;17.57;36.10
6345;BME280;3205;42.666;23.264;2023-03-26T11:51:11;93903.03;;;17.56;37.29
6345;BME280;3205;42.666;23.264;2023-03-26T11:53:39;93902.31;;;17.48;36.74
6345;BME280;3205;42.666;23.264;2023-03-26T11:56:14;93900.38;;;17.56;36.76
6345;BME280;3205;42.666;23.264;2023-03-26T11:58:48;93894.66;;;17.54;37.18
6345;BME280;3205;42.666;23.264;2023-03-26T12:01:20;93885.50;;;17.48;36.35
6345;BME280;3205;42.666;23.264;2023-03-26T12:04:02;93884.38;;;17.49;36.30
6345;BME280;3205;42.666;23.264;2023-03-26T12:06:30;93876.00;;;17.33;35.42
6345;BME280;3205;42.666;23.264;2023-03-26T12:08:57;93878.31;;;17.38;36.03
6345;BME280;3205;42.666;23.264;2023-03-26T12:11:25;93878.28;;;17.41;36.19
6345;BME280;3205;42.666;23.264;2023-03-26T12:13:56;93882.88;;;17.30;36.72
6345;BME280;3205;42.666;23.264;2023-03-26T12:16:23;93873.69;;;17.42;37.30
6345;BME280;3205;42.666;23.264;2023-03-26T12:18:59;93864.16;;;17.37;36.13
6345;BME280;3205;42.666;23.264;2023-03-26T12:21:26;93858.47;;;17.35;36.17
6345;BME280;3205;42.666;23.264;2023-03-26T12:23:57;93855.38;;;17.40;36.58
6345;BME280;3205;42.666;23.264;2023-03-26T12:26:38;93850.75;;;17.55;35.47
6345;BME280;3205;42.666;23.264;2023-03-26T12:29:08;93843.88;;;17.50;35.49
6345;BME280;3205;42.666;23.264;2023-03-26T12:31:48;93848.06;;;17.55;33.56
6345;BME280;3205;42.666;23.264;2023-03-26T12:34:17;93845.06;;;17.49;35.18
6345;BME280;3205;42.666;23.264;2023-03-26T12:36:51;93835.09;;;17.53;33.72
6345;BME280;3205;42.666;23.264;2023-03-26T12:39:32;93832.47;;;17.43;33.15
6345;BME280;3205;42.666;23.264;2023-03-26T12:42:00;93821.81;;;17.32;33.29
6345;BME280;3205;42.666;23.264;2023-03-26T12:44:29;93824.50;;;17.32;33.55
6345;BME280;3205;42.666;23.264;2023-03-26T12:47:12;93820.69;;;17.33;32.44
6345;BME280;3205;42.666;23.264;2023-03-26T12:49:40;93828.72;;;17.30;33.95
6345;BME280;3205;42.666;23.264;2023-03-26T12:52:34;93824.06;;;17.41;31.69
6345;BME280;3205;42.666;23.264;2023-03-26T12:55:12;93819.13;;;17.39;32.34
6345;BME280;3205;42.666;23.264;2023-03-26T12:57:48;93820.28;;;17.31;34.30
6345;BME280;3205;42.666;23.264;2023-03-26T13:00:25;93822.59;;;17.29;35.76
6345;BME280;3205;42.666;23.264;2023-03-26T13:03:12;93813.06;;;17.25;34.41
6345;BME280;3205;42.666;23.264;2023-03-26T13:05:57;93826.06;;;17.16;31.42
6345;BME280;3205;42.666;23.264;2023-03-26T13:11:28;93818.78;;;17.13;30.70
6345;BME280;3205;42.666;23.264;2023-03-26T13:14:10;93821.13;;;17.11;31.22
6345;BME280;3205;42.666;23.264;2023-03-26T13:16:45;93818.06;;;17.06;28.77
6345;BME280;3205;42.666;23.264;2023-03-26T13:19:20;93811.22;;;16.98;28.68
6345;BME280;3205;42.666;23.264;2023-03-26T13:22:01;93816.19;;;16.96;30.55
6345;BME280;3205;42.666;23.264;2023-03-26T13:24:39;93802.81;;;16.96;30.02
6345;BME280;3205;42.666;23.264;2023-03-26T13:27:19;93805.13;;;16.94;31.84
6345;BME280;3205;42.666;23.264;2023-03-26T13:29:54;93816.16;;;17.03;31.53
6345;BME280;3205;42.666;23.264;2023-03-26T13:32:28;93807.00;;;17.07;31.70
6345;BME280;3205;42.666;23.264;2023-03-26T13:35:09;93804.72;;;17.06;31.41
6345;BME280;3205;42.666;23.264;2023-03-26T13:37:43;93805.84;;;17.05;31.80
6345;BME280;3205;42.666;23.264;2023-03-26T13:40:24;93807.00;;;17.04;31.81
6345;BME280;3205;42.666;23.264;2023-03-26T13:43:08;93802.03;;;17.06;31.80
6345;BME280;3205;42.666;23.264;2023-03-26T13:45:49;93799.00;;;16.97;32.04
6345;BME280;3205;42.666;23.264;2023-03-26T13:48:20;93798.69;;;16.81;31.54
6345;BME280;3205;42.666;23.264;2023-03-26T13:50:57;93802.88;;;16.78;31.18
6345;BME280;3205;42.666;23.264;2023-03-26T13:53:28;93802.91;;;16.75;31.49
6345;BME280;3205;42.666;23.264;2023-03-26T13:55:58;93796.38;;;16.72;32.60
6345;BME280;3205;42.666;23.264;2023-03-26T13:58:31;93803.28;;;16.66;31.68
6345;BME280;3205;42.666;23.264;2023-03-26T14:01:03;93778.50;;;16.62;31.70
6345;BME280;3205;42.666;23.264;2023-03-26T14:03:39;93786.13;;;16.57;31.67
6345;BME280;3205;42.666;23.264;2023-03-26T14:06:15;93787.66;;;16.58;32.67
6345;BME280;3205;42.666;23.264;2023-03-26T14:08:46;93780.41;;;16.51;32.29
6345;BME280;3205;42.666;23.264;2023-03-26T14:11:21;93779.28;;;16.56;32.70
6345;BME280;3205;42.666;23.264;2023-03-26T14:13:53;93773.94;;;16.52;33.42
6345;BME280;3205;42.666;23.264;2023-03-26T14:16:26;93774.72;;;16.46;33.41